^^
Station Historical Data
 
Daily Summary for February 05, 2016 Units:  English    Metric   Both
« Previous Day
Next Day »
Daily Weekly Monthly Yearly Custom
  Current: High: Low: Average:
Temperature: 18.9 °F 38.2 °F 13.3 °F 25.5 °F
Dew Point: 9.1 °F 17.9 °F 5.6 °F 11.5 °F
Humidity: 65% 75% 36% 57%
Wind Speed: 1.2mph 10.4mph 1.0mph 3.1mph
Wind Gust: 1.2mph 10.4mph - -
WindSSW - - SSE
Pressure: 30.46 in 30.47 in 30.33 in -
Precipitation: 0.01 in      
Historical Graphs
 
 
Tabular Data for February 05, 2016
Time Temperature Dew Point Pressure Wind Wind Speed Wind Gust Humidity Rainfall Rate (Hourly)
00:04 23.0 °F 11.5 °F 30.33 in SSE 1.2 mph   61% 0.00 in
00:09 22.7 °F 11.6 °F 30.33 in SSE 3.5 mph 3.5 mph 62% 0.00 in
00:14 22.5 °F 11.1 °F 30.33 in SSE 2.3 mph 2.3 mph 61% 0.00 in
00:24 22.4 °F 11.3 °F 30.33 in SSE 1.2 mph 1.2 mph 62% 0.00 in
00:29 22.4 °F 11.3 °F 30.33 in SSE 1.2 mph 1.2 mph 62% 0.00 in
00:34 22.4 °F 11.3 °F 30.33 in Calm     62% 0.00 in
00:39 22.4 °F 11.3 °F 30.33 in Calm     62% 0.00 in
00:44 22.2 °F 11.1 °F 30.33 in Calm     62% 0.00 in
00:49 22.2 °F 11.1 °F 30.33 in Calm     62% 0.00 in
00:54 22.2 °F 10.8 °F 30.33 in SSE 2.3 mph 2.3 mph 61% 0.00 in
00:59 22.5 °F 10.3 °F 30.33 in SSE 3.5 mph 3.5 mph 59% 0.00 in
01:04 22.4 °F 11.0 °F 30.33 in SSE 2.3 mph 2.3 mph 61% 0.00 in
01:09 22.2 °F 11.5 °F 30.33 in SSE 1.2 mph 1.2 mph 63% 0.00 in
01:14 21.9 °F 11.2 °F 30.33 in Calm     63% 0.00 in
01:19 21.6 °F 11.3 °F 30.33 in Calm     64% 0.00 in
01:24 21.4 °F 11.1 °F 30.34 in Calm     64% 0.00 in
01:29 21.1 °F 11.2 °F 30.35 in Calm     65% 0.00 in
01:34 21.0 °F 11.4 °F 30.34 in Calm     66% 0.00 in
01:40 20.6 °F 11.0 °F 30.34 in Calm     66% 0.00 in
01:44 20.5 °F 11.3 °F 30.35 in Calm     67% 0.00 in
01:50 20.5 °F 11.3 °F 30.34 in Calm     67% 0.00 in
01:55 20.2 °F 11.0 °F 30.35 in SSE 1.2 mph 1.2 mph 67% 0.00 in
02:00 20.0 °F 11.1 °F 30.34 in Calm     68% 0.00 in
02:05 19.9 °F 11.0 °F 30.34 in Calm     68% 0.00 in
02:15 19.5 °F 11.0 °F 30.35 in Calm     69% 0.00 in
02:20 19.5 °F 11.0 °F 30.35 in Calm     69% 0.00 in
02:25 19.5 °F 11.3 °F 30.35 in Calm     70% 0.00 in
02:30 19.5 °F 11.3 °F 30.35 in Calm     70% 0.00 in
02:35 19.5 °F 11.3 °F 30.35 in Calm     70% 0.00 in
02:40 19.5 °F 11.6 °F 30.35 in SSE 1.2 mph 1.2 mph 71% 0.00 in
02:45 19.5 °F 11.6 °F 30.35 in Calm     71% 0.00 in
02:50 19.9 °F 12.0 °F 30.35 in SSE 1.2 mph   71% 0.00 in
02:55 20.0 °F 12.1 °F 30.36 in SSE 1.2 mph 1.2 mph 71% 0.00 in
03:00 20.0 °F 12.1 °F 30.36 in Calm     71% 0.00 in
03:05 20.0 °F 12.1 °F 30.35 in SSE 2.3 mph   71% 0.00 in
03:10 20.0 °F 12.1 °F 30.36 in Calm     71% 0.00 in
03:15 19.9 °F 12.3 °F 30.36 in Calm     72% 0.00 in
03:20 19.9 °F 12.3 °F 30.36 in Calm     72% 0.00 in
03:25 19.7 °F 12.1 °F 30.36 in Calm     72% 0.00 in
03:30 19.5 °F 11.9 °F 30.36 in Calm     72% 0.00 in
03:35 19.5 °F 11.9 °F 30.36 in Calm     72% 0.00 in
03:40 19.4 °F 11.8 °F 30.36 in Calm     72% 0.00 in
03:45 19.2 °F 11.6 °F 30.36 in Calm     72% 0.00 in
03:50 19.1 °F 11.6 °F 30.36 in Calm     72% 0.00 in
03:55 18.9 °F 11.4 °F 30.36 in Calm     72% 0.00 in
04:00 18.8 °F 11.3 °F 30.36 in Calm     72% 0.00 in
04:05 18.4 °F 10.9 °F 30.38 in Calm     72% 0.00 in
04:10 18.1 °F 10.6 °F 30.38 in Calm     72% 0.00 in
04:15 17.8 °F 10.6 °F 30.38 in Calm     73% 0.00 in
04:20 17.7 °F 10.2 °F 30.38 in Calm     72% 0.00 in
04:25 17.5 °F 10.0 °F 30.38 in Calm     72% 0.00 in
04:30 17.0 °F 9.5 °F 30.39 in Calm     72% 0.00 in
04:35 16.5 °F 9.0 °F 30.39 in Calm     72% 0.00 in
04:40 15.9 °F 8.2 °F 30.40 in Calm     71% 0.00 in
04:45 15.4 °F 8.0 °F 30.40 in Calm     72% 0.00 in
04:50 15.2 °F 8.1 °F 30.41 in Calm     73% 0.00 in
04:55 14.9 °F 7.8 °F 30.41 in Calm     73% 0.00 in
05:00 14.8 °F 7.7 °F 30.42 in Calm     73% 0.00 in
05:05 14.6 °F 7.5 °F 30.42 in Calm     73% 0.00 in
05:10 14.4 °F 7.3 °F 30.42 in Calm     73% 0.00 in
05:15 14.4 °F 7.6 °F 30.42 in Calm     74% 0.00 in
05:20 14.6 °F 7.8 °F 30.42 in Calm     74% 0.00 in
05:25 15.2 °F 8.7 °F 30.42 in SSE 2.3 mph 2.3 mph 75% 0.00 in
05:30 15.6 °F 8.8 °F 30.41 in SSE 1.2 mph 1.2 mph 74% 0.00 in
05:35 15.9 °F 8.8 °F 30.41 in Calm     73% 0.00 in
05:40 15.9 °F 8.2 °F 30.42 in Calm     71% 0.00 in
05:45 15.4 °F 7.7 °F 30.42 in Calm     71% 0.00 in
05:50 15.1 °F 7.4 °F 30.43 in Calm     71% 0.00 in
05:55 14.6 °F 6.9 °F 30.44 in Calm     71% 0.00 in
06:00 13.8 °F 5.8 °F 30.44 in Calm     70% 0.00 in
06:05 13.3 °F 5.6 °F 30.45 in Calm     71% 0.00 in
06:10 13.3 °F 5.6 °F 30.45 in Calm     71% 0.00 in
06:15 13.3 °F 5.6 °F 30.36 in Calm     71% 0.00 in
06:20 13.3 °F 5.6 °F 30.36 in Calm     71% 0.00 in
06:25 13.3 °F 5.6 °F 30.36 in Calm     71% 0.00 in
06:30 13.3 °F 5.6 °F 30.36 in Calm     71% 0.00 in
06:35 13.3 °F 5.6 °F 30.36 in Calm     71% 0.00 in
06:40 13.3 °F 5.6 °F 30.36 in Calm     71% 0.00 in
06:45 13.3 °F 5.6 °F 30.36 in Calm     71% 0.00 in
06:50 13.3 °F 5.6 °F 30.37 in Calm     71% 0.00 in
06:55 13.3 °F 5.6 °F 30.37 in Calm     71% 0.00 in
07:01 13.3 °F 5.6 °F 30.37 in Calm     71% 0.00 in
07:06 13.3 °F 5.6 °F 30.37 in Calm     71% 0.00 in
07:11 13.3 °F 5.6 °F 30.37 in Calm     71% 0.00 in
07:16 13.3 °F 5.6 °F 30.38 in Calm     71% 0.00 in
07:21 13.3 °F 5.6 °F 30.37 in Calm     71% 0.00 in
07:26 13.3 °F 5.6 °F 30.37 in Calm     71% 0.00 in
07:31 13.3 °F 5.6 °F 30.38 in Calm     71% 0.00 in
07:36 13.3 °F 5.6 °F 30.38 in Calm     71% 0.00 in
07:41 13.3 °F 5.6 °F 30.38 in Calm     71% 0.00 in
07:46 13.3 °F 5.6 °F 30.38 in Calm     71% 0.00 in
07:51 13.3 °F 5.6 °F 30.38 in Calm     71% 0.00 in
07:56 13.3 °F 5.6 °F 30.38 in Calm     71% 0.00 in
08:01 13.3 °F 5.6 °F 30.40 in Calm     71% 0.00 in
08:06 13.3 °F 5.6 °F 30.40 in Calm     71% 0.00 in
08:11 13.3 °F 5.6 °F 30.40 in Calm     71% 0.00 in
08:16 21.9 °F 8.6 °F 30.44 in Calm     56% 0.00 in
08:21 22.5 °F 8.7 °F 30.44 in Calm     55% 0.00 in
08:26 24.1 °F 9.4 °F 30.43 in Calm     53% 0.00 in
08:31 25.7 °F 9.6 °F 30.42 in Calm     50% 0.00 in
08:36 27.5 °F 9.9 °F 30.41 in Calm     47% 0.00 in
08:41 29.1 °F 10.4 °F 30.40 in Calm     45% 0.00 in
08:46 30.7 °F 10.8 °F 30.41 in Calm     43% 0.00 in
08:51 31.8 °F 10.7 °F 30.40 in Calm     41% 0.00 in
08:56 32.2 °F 10.5 °F 30.40 in Calm     40% 0.00 in
09:01 32.5 °F 10.3 °F 30.40 in Calm     39% 0.00 in
09:06 32.4 °F 11.3 °F 30.40 in Calm     41% 0.00 in
09:11 32.2 °F 10.5 °F 30.40 in Calm     40% 0.00 in
09:16 32.4 °F 11.3 °F 30.40 in SSE 2.3 mph 2.3 mph 41% 0.00 in
09:21 32.5 °F 10.8 °F 30.40 in SSE 3.5 mph 3.5 mph 40% 0.00 in
09:26 32.7 °F 11.6 °F 30.40 in SSE 1.2 mph   41% 0.00 in
09:31 33.1 °F 11.9 °F 30.40 in SSE 2.3 mph 2.3 mph 41% 0.00 in
09:36 33.2 °F 12.0 °F 30.40 in SSE 3.0 mph 3.0 mph 41% 0.00 in
09:41 33.5 °F 11.7 °F 30.40 in SSE 2.0 mph 2.0 mph 40% 0.00 in
09:46 33.2 °F 12.0 °F 30.40 in SSE 3.5 mph 3.5 mph 41% 0.00 in
09:51 32.5 °F 11.9 °F 30.40 in SSE 2.3 mph 2.3 mph 42% 0.00 in
09:56 31.8 °F 11.8 °F 30.41 in SSE 3.5 mph 3.5 mph 43% 0.00 in
10:06 32.9 °F 12.8 °F 30.41 in SSE 1.2 mph   43% 0.00 in
10:11 34.4 °F 12.5 °F 30.40 in SSE 2.3 mph 2.3 mph 40% 0.00 in
10:16 35.3 °F 11.0 °F 30.40 in SSE 2.3 mph 2.3 mph 36% 0.00 in
10:21 36.0 °F 12.8 °F 30.39 in SSE 2.3 mph 2.3 mph 38% 0.00 in
10:26 36.3 °F 12.5 °F 30.40 in SSE 1.2 mph   37% 0.01 in
10:31 36.0 °F 11.6 °F 30.40 in SSE 3.5 mph 3.5 mph 36% 0.01 in
10:36 33.8 °F 11.4 °F 30.41 in SSE 3.5 mph 3.5 mph 39% 0.01 in
10:41 33.1 °F 10.8 °F 30.43 in SSE 3.5 mph 3.5 mph 39% 0.01 in
10:46 32.8 °F 11.6 °F 30.43 in East 3.5 mph 3.5 mph 41% 0.01 in
10:51 32.7 °F 12.1 °F 30.43 in East 3.5 mph 3.5 mph 42% 0.01 in
10:56 32.7 °F 12.6 °F 30.43 in East 4.6 mph 4.6 mph 43% 0.01 in
11:01 32.2 °F 13.2 °F 30.42 in East 5.0 mph 5.0 mph 45% 0.01 in
11:06 31.9 °F 14.4 °F 30.42 in East 4.6 mph 4.6 mph 48% 0.01 in
11:11 32.4 °F 14.4 °F 30.42 in East 3.0 mph 3.0 mph 47% 0.01 in
11:16 32.9 °F 14.8 °F 30.41 in East 3.5 mph 3.5 mph 47% 0.01 in
11:21 33.5 °F 14.4 °F 30.40 in East 3.5 mph 3.5 mph 45% 0.01 in
11:26 34.0 °F 15.4 °F 30.40 in East 3.5 mph 3.5 mph 46% 0.00 in
11:36 35.3 °F 12.8 °F 30.39 in East 3.5 mph 3.5 mph 39% 0.00 in
11:41 35.5 °F 13.0 °F 30.37 in East 3.5 mph 3.5 mph 39% 0.00 in
11:46 35.8 °F 12.0 °F 30.36 in East 3.5 mph 3.5 mph 37% 0.00 in
11:51 35.8 °F 12.0 °F 30.36 in East 3.5 mph 3.5 mph 37% 0.00 in
11:56 35.6 °F 13.0 °F 30.35 in East 6.9 mph 6.9 mph 39% 0.00 in
12:01 35.3 °F 12.8 °F 30.36 in East 10.4 mph 10.4 mph 39% 0.00 in
12:06 35.5 °F 14.1 °F 30.35 in ENE 4.6 mph 4.6 mph 41% 0.00 in
12:11 36.0 °F 14.0 °F 30.35 in ENE 5.8 mph 5.8 mph 40% 0.00 in
12:21 36.5 °F 14.4 °F 30.34 in ENE 3.5 mph 3.5 mph 40% 0.00 in
12:26 37.2 °F 15.1 °F 30.34 in ENE 1.2 mph 1.2 mph 40% 0.00 in
12:31 37.8 °F 14.4 °F 30.34 in ENE 3.5 mph 3.5 mph 38% 0.00 in
12:37 37.6 °F 14.8 °F 30.34 in ENE 2.3 mph 2.3 mph 39% 0.00 in
12:42 38.2 °F 14.2 °F 30.34 in ENE 1.0 mph   37% 0.00 in
12:47 38.0 °F 14.0 °F 30.33 in ENE 3.5 mph 3.5 mph 37% 0.00 in
12:52 37.5 °F 15.3 °F 30.33 in SE 4.6 mph 4.6 mph 40% 0.00 in
12:57 37.3 °F 17.9 °F 30.33 in South 4.6 mph 4.6 mph 45% 0.00 in
13:02 35.9 °F 15.0 °F 30.35 in SSW 6.9 mph 6.9 mph 42% 0.00 in
13:07 35.0 °F 14.7 °F 30.36 in SSE 4.6 mph 4.6 mph 43% 0.00 in
13:12 34.9 °F 15.7 °F 30.36 in SSW 4.0 mph 4.0 mph 45% 0.00 in
13:17 35.2 °F 14.9 °F 30.36 in SSE 4.6 mph 4.6 mph 43% 0.00 in
13:22 35.0 °F 15.3 °F 30.35 in SE 4.6 mph 4.6 mph 44% 0.00 in
13:27 35.5 °F 15.7 °F 30.35 in SE 2.3 mph 2.3 mph 44% 0.00 in
13:32 35.9 °F 14.5 °F 30.33 in SE 3.5 mph 3.5 mph 41% 0.00 in
13:37 35.8 °F 16.5 °F 30.33 in SE 3.5 mph 3.5 mph 45% 0.00 in
13:42 35.8 °F 14.9 °F 30.33 in SE 4.6 mph 4.6 mph 42% 0.00 in
13:47 36.0 °F 14.0 °F 30.33 in SE 3.5 mph 3.5 mph 40% 0.00 in
13:52 36.3 °F 14.8 °F 30.33 in SE 4.0 mph 4.0 mph 41% 0.00 in
13:57 36.3 °F 14.8 °F 30.33 in SE 2.3 mph 2.3 mph 41% 0.00 in
14:02 36.3 °F 13.7 °F 30.33 in SE 3.5 mph 3.5 mph 39% 0.00 in
14:07 36.5 °F 13.9 °F 30.33 in SE 3.5 mph 3.5 mph 39% 0.00 in
14:12 36.5 °F 14.4 °F 30.33 in SE 4.0 mph 4.0 mph 40% 0.00 in
14:17 35.9 °F 15.5 °F 30.33 in SE 5.8 mph 5.8 mph 43% 0.00 in
14:22 35.8 °F 16.0 °F 30.33 in SE 4.6 mph 4.6 mph 44% 0.00 in
14:27 35.5 °F 15.7 °F 30.33 in SE 4.6 mph 4.6 mph 44% 0.00 in
14:32 35.5 °F 14.6 °F 30.33 in SE 5.0 mph 5.0 mph 42% 0.00 in
14:37 35.2 °F 15.4 °F 30.34 in SE 5.0 mph 5.0 mph 44% 0.00 in
14:42 35.0 °F 15.3 °F 30.34 in SE 4.6 mph 4.6 mph 44% 0.00 in
14:47 34.9 °F 14.6 °F 30.34 in SE 4.6 mph 4.6 mph 43% 0.00 in
14:52 34.9 °F 15.7 °F 30.34 in SE 5.8 mph 5.8 mph 45% 0.00 in
14:57 34.9 °F 14.1 °F 30.34 in SE 4.6 mph 4.6 mph 42% 0.00 in
15:02 35.0 °F 14.7 °F 30.34 in SE 4.0 mph 4.0 mph 43% 0.00 in
15:07 35.0 °F 14.7 °F 30.34 in SE 3.5 mph 3.5 mph 43% 0.00 in
15:12 35.2 °F 14.9 °F 30.34 in SE 3.5 mph 3.5 mph 43% 0.00 in
15:17 35.3 °F 16.6 °F 30.34 in SE 3.5 mph 3.5 mph 46% 0.00 in
15:22 35.5 °F 15.7 °F 30.34 in SSE 6.0 mph 6.0 mph 44% 0.00 in
15:27 35.5 °F 15.7 °F 30.34 in South 4.6 mph 4.6 mph 44% 0.00 in
15:32 35.6 °F 16.8 °F 30.34 in South 2.3 mph 2.3 mph 46% 0.00 in
15:37 35.2 °F 17.0 °F 30.34 in South 2.3 mph 2.3 mph 47% 0.00 in
15:42 34.7 °F 17.0 °F 30.35 in South 2.3 mph   48% 0.00 in
15:47 34.4 °F 17.2 °F 30.36 in Calm     49% 0.00 in
15:52 34.0 °F 16.8 °F 30.35 in SSW 2.0 mph 2.0 mph 49% 0.00 in
15:57 33.5 °F 16.8 °F 30.35 in SSW 2.3 mph 2.3 mph 50% 0.00 in
16:02 33.1 °F 16.5 °F 30.38 in SSW 1.2 mph 1.2 mph 50% 0.00 in
16:07 32.9 °F 16.7 °F 30.37 in Calm     51% 0.00 in
16:12 32.5 °F 16.8 °F 30.38 in SSW 3.5 mph   52% 0.00 in
16:22 31.8 °F 16.6 °F 30.39 in SSW 1.0 mph   53% 0.00 in
16:27 31.2 °F 16.5 °F 30.39 in Calm     54% 0.00 in
16:32 30.7 °F 16.4 °F 30.40 in SSW 3.5 mph 3.5 mph 55% 0.00 in
16:37 30.3 °F 16.0 °F 30.41 in SSW 1.2 mph   55% 0.00 in
16:47 29.5 °F 15.7 °F 30.41 in Calm     56% 0.00 in
16:52 29.0 °F 15.2 °F 30.41 in SSW 1.2 mph 1.2 mph 56% 0.00 in
16:57 28.4 °F 15.1 °F 30.43 in SSW 1.2 mph   57% 0.00 in
17:02 27.8 °F 14.9 °F 30.43 in SSW 2.3 mph 2.3 mph 58% 0.00 in
17:07 27.3 °F 14.5 °F 30.44 in Calm     58% 0.00 in
17:12 26.9 °F 14.1 °F 30.44 in Calm     58% 0.00 in
17:17 26.4 °F 14.0 °F 30.44 in Calm     59% 0.00 in
17:22 26.0 °F 13.6 °F 30.44 in Calm     59% 0.00 in
17:27 25.6 °F 13.6 °F 30.44 in SSW 1.2 mph   60% 0.00 in
17:32 25.3 °F 13.3 °F 30.45 in SSW 2.3 mph 2.3 mph 60% 0.00 in
17:37 24.7 °F 12.8 °F 30.45 in SSW 2.3 mph 2.3 mph 60% 0.00 in
17:43 24.4 °F 12.9 °F 30.45 in SSW 1.2 mph 1.2 mph 61% 0.00 in
17:48 24.1 °F 12.6 °F 30.45 in Calm     61% 0.00 in
17:58 23.2 °F 12.1 °F 30.46 in SSW 3.5 mph 3.5 mph 62% 0.00 in
18:18 23.3 °F 11.8 °F 30.42 in Calm     61% 0.00 in
18:23 22.9 °F 11.4 °F 30.42 in SSW 2.3 mph 2.3 mph 61% 0.00 in
18:28 22.5 °F 11.1 °F 30.42 in Calm     61% 0.00 in
18:33 22.1 °F 10.7 °F 30.43 in SSW 2.3 mph 2.3 mph 61% 0.00 in
18:43 21.9 °F 10.9 °F 30.43 in Calm     62% 0.00 in
18:48 21.4 °F 10.4 °F 30.44 in SSW 1.2 mph   62% 0.00 in
18:53 21.1 °F 10.1 °F 30.44 in SSW 1.2 mph 1.2 mph 62% 0.00 in
18:58 20.6 °F 9.6 °F 30.44 in SSW 2.3 mph 2.3 mph 62% 0.00 in
19:03 20.3 °F 9.0 °F 30.45 in SSW 1.2 mph 1.2 mph 61% 0.00 in
19:13 19.1 °F 7.8 °F 30.46 in Calm   0.1 mph 61% 0.00 in
19:18 18.6 °F 7.7 °F 30.46 in Calm     62% 0.00 in
19:23 18.3 °F 8.5 °F 30.47 in SSW 2.3 mph 2.3 mph 65% 0.00 in
19:28 18.9 °F 9.1 °F 30.46 in SSW 1.2 mph 1.2 mph 65% 0.00 in
Windsor CO Weather
Compliments of Weather Underground